createdAt,value
2018-07-25T00:01:02.796Z,64.78
2018-07-25T00:03:28.832Z,62.85
2018-07-25T00:05:54.865Z,62.78
2018-07-25T00:08:20.909Z,65.05
2018-07-25T00:10:46.910Z,64.17
2018-07-25T00:13:12.922Z,64.28
2018-07-25T00:15:38.943Z,66.39
2018-07-25T00:18:04.994Z,64.79
2018-07-25T00:20:31.013Z,65.56
2018-07-25T00:22:57.045Z,64.36
2018-07-25T00:25:23.079Z,63.60
2018-07-25T00:27:49.067Z,64.63
2018-07-25T00:30:15.104Z,67.25
2018-07-25T00:32:41.119Z,66.70
2018-07-25T00:35:07.151Z,67.91
2018-07-25T00:37:33.145Z,67.21
2018-07-25T00:39:59.181Z,66.17
2018-07-25T00:42:25.224Z,65.16
2018-07-25T00:44:51.244Z,65.52
2018-07-25T00:47:17.261Z,66.85
2018-07-25T00:49:43.274Z,67.78
2018-07-25T00:52:09.318Z,67.65
2018-07-25T00:54:35.339Z,67.10
2018-07-25T00:57:01.374Z,67.62
2018-07-25T00:59:27.402Z,66.83
2018-07-25T01:01:53.475Z,68.21
2018-07-25T01:04:19.489Z,70.19
2018-07-25T01:06:45.523Z,69.74
2018-07-25T01:09:11.554Z,68.62
2018-07-25T01:11:37.599Z,66.50
2018-07-25T01:14:03.703Z,69.69
2018-07-25T01:16:29.738Z,69.35
2018-07-25T01:18:55.736Z,69.08
2018-07-25T01:21:21.794Z,70.17
2018-07-25T01:23:47.810Z,68.52
2018-07-25T01:26:13.827Z,69.54
2018-07-25T01:28:39.820Z,71.01
2018-07-25T01:31:05.858Z,71.04
2018-07-25T01:33:31.858Z,69.92
2018-07-25T01:35:57.894Z,69.59
2018-07-25T01:38:23.945Z,70.10
2018-07-25T01:40:49.953Z,70.24
2018-07-25T01:43:16.009Z,69.61
2018-07-25T01:45:42.023Z,71.16
2018-07-25T01:48:08.052Z,69.84
2018-07-25T01:50:34.069Z,70.99
2018-07-25T01:53:00.119Z,72.52
2018-07-25T01:55:26.166Z,70.05
2018-07-25T01:57:52.242Z,71.46
2018-07-25T02:00:18.233Z,72.46
2018-07-25T02:02:44.294Z,72.23
2018-07-25T02:05:10.314Z,72.93
2018-07-25T02:07:36.329Z,71.70
2018-07-25T02:10:02.323Z,71.65
2018-07-25T02:12:28.331Z,72.90
2018-07-25T02:14:54.374Z,71.12
2018-07-25T02:17:20.410Z,73.32
2018-07-25T02:19:46.431Z,71.62
2018-07-25T02:22:12.438Z,73.36
2018-07-25T02:24:42.590Z,71.78
2018-07-25T02:27:08.609Z,74.72
2018-07-25T02:29:34.620Z,72.88
2018-07-25T02:32:00.656Z,72.55
2018-07-25T02:34:26.661Z,75.83
2018-07-25T02:36:52.668Z,73.57
2018-07-25T02:39:18.684Z,74.72
2018-07-25T02:41:44.687Z,75.20
2018-07-25T02:44:10.708Z,75.66
2018-07-25T02:46:36.814Z,77.27
2018-07-25T02:49:02.818Z,76.16
2018-07-25T02:51:28.833Z,74.50
2018-07-25T02:53:54.843Z,74.98
2018-07-25T02:56:20.862Z,73.87
2018-07-25T02:58:46.856Z,74.75
2018-07-25T03:01:12.892Z,74.31
2018-07-25T03:03:38.923Z,74.69
2018-07-25T03:06:04.939Z,76.13
2018-07-25T03:08:30.978Z,74.74
2018-07-25T03:10:57.024Z,75.50
2018-07-25T03:13:23.030Z,74.55
2018-07-25T03:15:49.090Z,74.94
2018-07-25T03:18:15.157Z,76.48
2018-07-25T03:20:41.179Z,75.60
2018-07-25T03:23:07.193Z,76.37
2018-07-25T03:25:33.241Z,76.80
2018-07-25T03:27:59.233Z,75.66
2018-07-25T03:30:25.230Z,75.33
2018-07-25T03:32:51.329Z,75.00
2018-07-25T03:35:17.343Z,77.60
2018-07-25T03:37:43.328Z,77.46
2018-07-25T03:40:09.357Z,76.77
2018-07-25T03:42:35.370Z,78.55
2018-07-25T03:45:01.382Z,76.83
2018-07-25T03:47:27.410Z,78.61
2018-07-25T03:49:53.476Z,78.86
2018-07-25T03:52:19.495Z,78.63
2018-07-25T03:54:45.496Z,79.14
2018-07-25T03:57:11.491Z,78.81
2018-07-25T03:59:37.503Z,80.87
2018-07-25T04:02:03.530Z,80.42
2018-07-25T04:04:29.856Z,79.85
2018-07-25T04:06:55.884Z,79.48
2018-07-25T04:09:21.880Z,78.30
2018-07-25T04:11:47.895Z,78.77
2018-07-25T04:14:13.930Z,78.09
2018-07-25T04:18:25.907Z,78.30
2018-07-25T04:20:51.933Z,81.03
2018-07-25T04:23:17.959Z,79.30
2018-07-25T04:25:43.990Z,78.71
2018-07-25T04:28:10.004Z,77.53
2018-07-25T04:32:34.364Z,80.01
2018-07-25T04:35:00.383Z,78.63
2018-07-25T04:37:26.406Z,80.72
2018-07-25T04:40:47.975Z,78.40
2018-07-25T04:43:13.984Z,78.23
2018-07-25T04:45:40.003Z,78.89
2018-07-25T04:48:06.011Z,77.29
2018-07-25T04:50:32.035Z,77.19
2018-07-25T04:52:58.027Z,79.42
2018-07-25T04:55:24.044Z,77.42
2018-07-25T04:57:50.050Z,78.26
2018-07-25T05:00:16.080Z,78.99
2018-07-25T05:02:42.096Z,78.85
2018-07-25T05:05:08.127Z,77.90
2018-07-25T05:07:34.136Z,79.22
2018-07-25T05:10:00.139Z,79.96
2018-07-25T05:12:26.212Z,78.92
2018-07-25T05:14:52.217Z,79.06
2018-07-25T05:17:18.270Z,78.45
2018-07-25T05:19:44.640Z,79.17
2018-07-25T05:22:10.683Z,78.70
2018-07-25T05:24:36.680Z,78.11
2018-07-25T05:28:16.292Z,77.58
2018-07-25T05:30:42.310Z,77.70
2018-07-25T05:33:08.322Z,78.54
2018-07-25T05:35:34.339Z,77.72
2018-07-25T05:38:00.361Z,77.67
2018-07-25T05:40:26.362Z,77.43
2018-07-25T05:42:52.393Z,78.86
2018-07-25T05:45:18.410Z,77.54
2018-07-25T05:47:44.400Z,78.13
2018-07-25T05:50:10.420Z,78.08
2018-07-25T05:52:36.469Z,77.51
2018-07-25T05:56:52.561Z,73.96
2018-07-25T05:59:18.571Z,72.17
2018-07-25T06:01:44.575Z,74.83
2018-07-25T06:04:10.615Z,74.79
2018-07-25T06:06:36.680Z,74.10
2018-07-25T06:09:02.704Z,72.25
2018-07-25T06:11:28.716Z,73.15
2018-07-25T06:13:54.730Z,70.80
2018-07-25T06:16:20.762Z,70.57
2018-07-25T06:18:46.790Z,70.01
2018-07-25T06:21:12.806Z,70.57
2018-07-25T06:23:38.837Z,69.30
2018-07-25T06:26:05.001Z,70.40
2018-07-25T06:28:30.899Z,71.21
2018-07-25T06:34:20.160Z,69.19
2018-07-25T06:36:46.175Z,67.48
2018-07-25T06:39:12.192Z,66.74
2018-07-25T06:41:38.210Z,67.41
2018-07-25T06:44:04.207Z,66.63
2018-07-25T06:46:30.252Z,66.20
2018-07-25T06:48:56.318Z,65.68
2018-07-25T06:51:22.615Z,64.72
2018-07-25T06:53:48.652Z,64.53
2018-07-25T06:56:14.705Z,65.97
2018-07-25T06:58:41.095Z,64.36
2018-07-25T07:01:07.123Z,64.05
2018-07-25T07:03:33.144Z,63.57
2018-07-25T07:05:59.224Z,62.74
2018-07-25T07:08:25.192Z,63.23
2018-07-25T07:10:51.215Z,63.73
2018-07-25T07:13:17.234Z,63.34
2018-07-25T07:15:43.360Z,61.83
2018-07-25T07:18:09.394Z,61.41
2018-07-25T07:20:35.413Z,61.87
2018-07-25T07:23:01.419Z,61.49
2018-07-25T07:25:27.456Z,61.99
2018-07-25T07:27:53.495Z,61.27
2018-07-25T07:30:19.506Z,60.02
2018-07-25T07:32:45.507Z,59.91
2018-07-25T07:35:11.560Z,58.89
2018-07-25T07:37:37.604Z,59.58
2018-07-25T07:40:03.651Z,58.04
2018-07-25T07:42:29.667Z,58.41
2018-07-25T07:44:55.673Z,58.10
2018-07-25T07:47:21.668Z,56.96
2018-07-25T07:49:47.678Z,56.63
2018-07-25T07:52:13.710Z,57.24
2018-07-25T07:54:39.746Z,56.41
2018-07-25T07:57:06.053Z,56.36
2018-07-25T07:59:32.160Z,55.44
2018-07-25T08:01:58.144Z,56.21
2018-07-25T08:04:24.202Z,54.47
2018-07-25T08:06:50.224Z,54.71
2018-07-25T08:09:16.259Z,53.63
2018-07-25T08:11:42.290Z,54.27
2018-07-25T08:14:08.295Z,53.44
2018-07-25T08:16:34.324Z,54.48
2018-07-25T08:19:00.401Z,53.54
2018-07-25T08:21:26.408Z,52.17
2018-07-25T08:23:52.429Z,52.04
2018-07-25T08:26:18.691Z,50.82
2018-07-25T08:28:44.735Z,51.46
2018-07-25T08:31:10.734Z,51.18
2018-07-25T08:33:36.744Z,50.89
2018-07-25T08:36:02.862Z,50.31
2018-07-25T08:38:28.901Z,48.07
2018-07-25T08:40:55.287Z,48.58
2018-07-25T08:43:21.292Z,49.92
2018-07-25T08:45:47.637Z,48.09
2018-07-25T08:48:13.664Z,48.01
2018-07-25T08:50:39.728Z,47.63
2018-07-25T08:53:05.765Z,47.72
2018-07-25T08:55:31.809Z,48.72
2018-07-25T08:57:57.848Z,46.86
2018-07-25T09:00:23.913Z,46.50
2018-07-25T09:02:49.920Z,45.94
2018-07-25T09:05:15.961Z,45.72
2018-07-25T09:07:42.069Z,46.20
2018-07-25T09:10:08.073Z,45.89
2018-07-25T09:12:34.114Z,45.27
2018-07-25T09:15:00.176Z,45.52
2018-07-25T09:17:26.251Z,44.88
2018-07-25T09:19:52.443Z,44.62
2018-07-25T09:22:18.641Z,44.40
2018-07-25T09:24:44.636Z,43.95
2018-07-25T09:27:10.686Z,44.25
2018-07-25T09:29:36.694Z,43.67
2018-07-25T09:32:02.724Z,44.02
2018-07-25T09:34:28.890Z,41.69
2018-07-25T09:36:54.858Z,43.11
2018-07-25T09:39:20.991Z,43.40
2018-07-25T09:41:47.046Z,41.89
2018-07-25T09:44:13.081Z,41.17
2018-07-25T09:46:39.252Z,41.34
2018-07-25T09:49:05.130Z,40.85
2018-07-25T09:51:31.207Z,40.16
2018-07-25T09:53:57.244Z,39.12
2018-07-25T09:56:23.297Z,39.98
2018-07-25T09:58:49.331Z,39.31
2018-07-25T10:01:15.381Z,39.29
2018-07-25T10:03:41.619Z,38.60
2018-07-25T10:06:07.673Z,38.65
2018-07-25T10:08:33.743Z,37.70
2018-07-25T10:10:59.797Z,36.73
2018-07-25T10:13:25.877Z,36.69
2018-07-25T10:15:51.960Z,35.97
2018-07-25T10:18:18.055Z,35.84
2018-07-25T10:20:44.126Z,35.19
2018-07-25T10:23:10.217Z,36.84
2018-07-25T10:25:36.405Z,35.94
2018-07-25T10:28:02.526Z,34.09
2018-07-25T10:30:28.647Z,34.43
2018-07-25T10:32:55.047Z,33.63
2018-07-25T10:35:21.051Z,34.21
2018-07-25T10:37:47.129Z,34.22
2018-07-25T10:40:13.198Z,34.79
2018-07-25T10:42:39.348Z,33.60
2018-07-25T10:45:05.515Z,33.30
2018-07-25T10:47:31.647Z,33.42
2018-07-25T10:49:57.773Z,33.12
2018-07-25T10:52:24.208Z,31.96
2018-07-25T10:54:50.138Z,32.03
2018-07-25T10:57:16.308Z,33.51
2018-07-25T10:59:42.380Z,32.75
2018-07-25T11:02:08.534Z,31.54
2018-07-25T11:04:34.936Z,31.40
2018-07-25T11:07:01.021Z,31.17
2018-07-25T11:09:27.099Z,31.21
2018-07-25T11:11:53.207Z,29.85
2018-07-25T11:14:19.280Z,31.31
2018-07-25T11:16:45.440Z,30.40
2018-07-25T11:19:11.602Z,31.70
2018-07-25T11:21:37.913Z,29.74
2018-07-25T11:24:04.192Z,30.06
2018-07-25T11:26:30.248Z,30.00
2018-07-25T11:28:56.655Z,30.77
2018-07-25T11:31:22.709Z,29.91
2018-07-25T11:33:48.958Z,29.56
2018-07-25T11:36:15.082Z,29.74
2018-07-25T11:38:41.126Z,28.01
2018-07-25T11:41:07.437Z,27.95
2018-07-25T11:43:33.662Z,28.63
2018-07-25T11:45:59.769Z,27.10
2018-07-25T11:48:26.327Z,27.36
2018-07-25T11:50:52.419Z,26.85
2018-07-25T11:53:18.454Z,25.80
2018-07-25T11:55:44.911Z,26.32
2018-07-25T11:58:11.060Z,25.83
2018-07-25T12:00:37.421Z,23.68
2018-07-25T12:03:03.463Z,24.97
2018-07-25T12:05:29.554Z,24.68
2018-07-25T12:07:55.624Z,24.74
2018-07-25T12:10:21.743Z,24.26
2018-07-25T12:12:47.830Z,23.97
2018-07-25T12:15:13.984Z,22.77
2018-07-25T12:17:40.066Z,21.89
2018-07-25T12:20:06.225Z,22.50
2018-07-25T12:22:33.512Z,22.11
2018-07-25T12:25:00.817Z,20.54
2018-07-25T12:27:26.954Z,17.88
2018-07-25T12:29:53.121Z,16.42
2018-07-25T12:32:19.324Z,15.91
2018-07-25T12:34:45.615Z,14.95
2018-07-25T12:37:11.803Z,14.46
2018-07-25T12:39:37.907Z,14.51
2018-07-25T12:42:04.035Z,16.46
2018-07-25T12:44:30.148Z,17.51
2018-07-25T12:46:56.350Z,17.78
2018-07-25T12:49:22.488Z,19.35
2018-07-25T12:51:48.672Z,19.79
2018-07-25T12:54:14.856Z,21.04
2018-07-25T12:56:40.935Z,21.56
2018-07-25T12:59:07.033Z,21.00
2018-07-25T13:01:33.141Z,19.12
2018-07-25T13:03:59.216Z,17.24
2018-07-25T13:06:25.302Z,15.21
2018-07-25T13:08:51.381Z,13.67
2018-07-25T13:11:17.458Z,12.49
2018-07-25T13:13:43.518Z,10.93
2018-07-25T13:16:09.578Z,12.32
2018-07-25T13:18:35.648Z,12.12
2018-07-25T13:21:01.696Z,11.57
2018-07-25T13:24:28.930Z,11.48
2018-07-25T13:26:55.038Z,13.43
2018-07-25T13:29:21.111Z,13.30
2018-07-25T13:31:47.203Z,12.89
2018-07-25T13:34:13.305Z,12.73
2018-07-25T13:36:39.389Z,13.32
2018-07-25T13:39:05.469Z,14.87
2018-07-25T13:41:31.534Z,14.94
2018-07-25T13:43:57.620Z,15.27
2018-07-25T13:46:23.910Z,16.64
2018-07-25T13:48:49.857Z,17.89
2018-07-25T13:51:15.936Z,18.36
2018-07-25T13:53:42.022Z,19.16
2018-07-25T13:56:08.173Z,19.41
2018-07-25T13:58:34.240Z,21.37
2018-07-25T14:01:00.305Z,22.70
2018-07-25T14:03:26.457Z,22.41
2018-07-25T14:05:52.617Z,22.43
2018-07-25T14:08:18.661Z,22.94
2018-07-25T14:10:45.601Z,22.60
2018-07-25T14:13:11.662Z,22.77
2018-07-25T14:15:37.744Z,22.09
2018-07-25T14:18:03.840Z,25.30
2018-07-25T14:20:29.909Z,24.37
2018-07-25T14:22:55.956Z,23.27
2018-07-25T14:25:22.114Z,22.44
2018-07-25T14:27:48.194Z,23.64
2018-07-25T14:30:14.360Z,23.48
2018-07-25T14:32:40.388Z,23.22
2018-07-25T14:35:06.477Z,22.92
2018-07-25T14:37:32.553Z,22.74
2018-07-25T14:39:58.655Z,22.11
2018-07-25T14:42:24.707Z,20.97
2018-07-25T14:44:50.778Z,20.43
2018-07-25T14:47:17.015Z,21.57
2018-07-25T14:49:42.913Z,21.60
2018-07-25T14:52:08.975Z,22.22
2018-07-25T14:54:35.038Z,25.63
2018-07-25T14:57:01.229Z,26.53
2018-07-25T14:59:27.241Z,25.16
2018-07-25T15:01:53.366Z,26.03
2018-07-25T15:04:19.442Z,26.12
2018-07-25T15:06:45.601Z,25.90
2018-07-25T15:09:11.662Z,26.63
2018-07-25T15:11:37.718Z,27.48
2018-07-25T15:14:03.789Z,27.26
2018-07-25T15:16:29.864Z,27.31
2018-07-25T15:18:55.926Z,27.67
2018-07-25T15:21:21.989Z,26.65
2018-07-25T15:23:48.105Z,27.16
2018-07-25T15:26:14.123Z,27.71
2018-07-25T15:28:40.214Z,27.52
2018-07-25T15:31:06.297Z,27.06
2018-07-25T15:33:32.461Z,26.59
2018-07-25T15:35:58.616Z,25.86
2018-07-25T15:38:24.838Z,26.31
2018-07-25T15:40:50.897Z,26.20
2018-07-25T15:43:16.978Z,25.40
2018-07-25T15:45:43.038Z,23.86
2018-07-25T15:48:09.122Z,23.15
2018-07-25T15:50:35.191Z,22.31
2018-07-25T15:53:01.375Z,21.63
2018-07-25T15:55:27.436Z,22.87
2018-07-25T15:57:53.620Z,23.48
2018-07-25T16:00:19.682Z,22.36
2018-07-25T16:02:45.743Z,22.26
2018-07-25T16:05:11.867Z,22.32
2018-07-25T16:07:37.945Z,22.59
2018-07-25T16:10:04.055Z,22.37
2018-07-25T16:12:30.118Z,23.22
2018-07-25T16:14:56.174Z,24.43
2018-07-25T16:17:22.359Z,25.38
2018-07-25T16:19:48.469Z,25.87
2018-07-25T16:22:14.522Z,26.15
2018-07-25T16:24:40.652Z,25.83
2018-07-25T16:27:06.785Z,25.89
2018-07-25T16:29:32.846Z,26.61
2018-07-25T16:31:58.906Z,27.27
2018-07-25T16:34:25.012Z,27.54
2018-07-25T16:36:51.059Z,28.63
2018-07-25T16:39:17.138Z,29.92
2018-07-25T16:41:43.220Z,31.20
2018-07-25T16:44:09.278Z,32.04
2018-07-25T16:46:35.430Z,32.55
2018-07-25T16:49:01.521Z,33.58
2018-07-25T16:51:27.580Z,33.82
2018-07-25T16:53:53.646Z,34.40
2018-07-25T16:56:19.744Z,36.94
2018-07-25T16:58:45.806Z,36.68
2018-07-25T17:01:12.147Z,36.51
2018-07-25T17:03:38.231Z,37.10
2018-07-25T17:06:04.304Z,37.82
2018-07-25T17:08:30.358Z,37.79
2018-07-25T17:10:56.406Z,38.64
2018-07-25T17:13:22.462Z,38.32
2018-07-25T17:15:48.513Z,37.57
2018-07-25T17:18:14.631Z,37.58
2018-07-25T17:20:40.693Z,37.44
2018-07-25T17:23:06.759Z,38.30
2018-07-25T17:25:32.849Z,37.66
2018-07-25T17:27:58.914Z,39.20
2018-07-25T17:30:25.001Z,39.94
2018-07-25T17:32:51.069Z,40.32
2018-07-25T17:35:17.165Z,39.12
2018-07-25T17:37:43.183Z,40.12
2018-07-25T17:40:09.241Z,39.39
2018-07-25T17:42:35.294Z,39.37
2018-07-25T17:45:01.362Z,39.67
2018-07-25T17:47:27.417Z,41.99
2018-07-25T17:49:53.489Z,40.82
2018-07-25T17:52:19.558Z,39.43
2018-07-25T17:54:45.611Z,39.53
2018-07-25T17:57:11.662Z,41.38
2018-07-25T17:59:37.743Z,39.47
2018-07-25T18:02:03.811Z,41.50
2018-07-25T18:04:29.874Z,42.21
2018-07-25T18:06:56.003Z,41.06
2018-07-25T18:09:22.063Z,41.15
2018-07-25T18:11:48.129Z,43.40
2018-07-25T18:14:14.192Z,40.56
2018-07-25T18:16:40.278Z,42.19
2018-07-25T18:19:06.372Z,43.82
2018-07-25T18:21:32.471Z,41.50
2018-07-25T18:23:58.537Z,42.31
2018-07-25T18:26:24.606Z,40.81
2018-07-25T18:28:50.670Z,41.63
2018-07-25T18:31:16.737Z,42.05
2018-07-25T18:33:42.798Z,43.96
2018-07-25T18:36:08.857Z,42.67
2018-07-25T18:38:34.925Z,42.68
2018-07-25T18:41:00.991Z,42.10
2018-07-25T18:43:27.033Z,44.06
2018-07-25T18:45:55.136Z,43.49
2018-07-25T18:48:21.187Z,43.87
2018-07-25T18:50:47.237Z,42.86
2018-07-25T18:53:13.279Z,44.39
2018-07-25T18:55:39.326Z,43.36
2018-07-25T18:58:05.379Z,45.08
2018-07-25T19:00:31.419Z,47.14
2018-07-25T19:02:57.486Z,45.41
2018-07-25T19:05:23.690Z,46.38
2018-07-25T19:07:49.693Z,47.78
2018-07-25T19:10:15.733Z,46.02
2018-07-25T19:12:41.761Z,47.29
2018-07-25T19:15:07.798Z,48.69
2018-07-25T19:17:33.869Z,49.00
2018-07-25T19:19:59.902Z,48.27
2018-07-25T19:22:25.938Z,51.15
2018-07-25T19:24:51.984Z,51.71
2018-07-25T19:27:18.026Z,52.88
2018-07-25T19:29:44.062Z,51.07
2018-07-25T19:32:10.106Z,51.82
2018-07-25T19:34:36.177Z,51.86
2018-07-25T19:37:02.214Z,51.97
2018-07-25T19:39:28.246Z,54.14
2018-07-25T19:46:58.403Z,52.45
2018-07-25T19:49:24.439Z,53.23
2018-07-25T19:51:50.481Z,53.82
2018-07-25T19:54:16.517Z,56.03
2018-07-25T19:56:42.558Z,55.55
2018-07-25T19:59:08.598Z,54.65
2018-07-25T20:01:34.642Z,56.25
2018-07-25T20:04:00.682Z,54.74
2018-07-25T20:06:26.730Z,55.30
2018-07-25T20:08:52.821Z,56.42
2018-07-25T20:11:18.862Z,58.49
2018-07-25T20:13:53.675Z,56.37
2018-07-25T20:16:19.746Z,56.50
2018-07-25T20:18:45.781Z,57.36
2018-07-25T20:21:11.818Z,57.97
2018-07-25T20:23:37.854Z,58.27
2018-07-25T20:26:03.890Z,57.92
2018-07-25T20:28:29.927Z,59.05
2018-07-25T20:30:55.966Z,61.01
2018-07-25T20:33:22.006Z,61.18
2018-07-25T20:38:20.554Z,59.80
2018-07-25T20:40:46.596Z,60.70
2018-07-25T20:43:12.634Z,60.33
2018-07-25T20:45:38.672Z,61.49
2018-07-25T20:48:04.811Z,61.22
2018-07-25T20:50:30.842Z,61.21
2018-07-25T20:52:56.881Z,60.95
2018-07-25T20:55:22.914Z,60.59
2018-07-25T20:57:48.958Z,61.67
2018-07-25T21:00:15.048Z,62.24
2018-07-25T21:02:41.070Z,62.05
2018-07-25T21:05:07.169Z,63.32
2018-07-25T21:07:33.211Z,64.50
2018-07-25T21:09:59.254Z,65.48
2018-07-25T21:12:25.294Z,64.84
2018-07-25T21:14:51.334Z,63.30
2018-07-25T21:17:17.374Z,63.90
2018-07-25T21:19:43.419Z,65.59
2018-07-25T21:22:09.454Z,65.53
2018-07-25T21:24:35.537Z,66.00
2018-07-25T21:27:01.576Z,64.71
2018-07-25T21:29:27.617Z,66.29
2018-07-25T21:31:53.674Z,65.07
2018-07-25T21:34:19.750Z,67.00
2018-07-25T21:36:45.801Z,65.99
2018-07-25T21:39:11.829Z,66.47
2018-07-25T21:41:37.911Z,65.94
2018-07-25T21:44:03.946Z,63.97
2018-07-25T21:46:29.980Z,65.01
2018-07-25T21:50:11.712Z,67.21
2018-07-25T21:52:37.894Z,66.96
2018-07-25T21:55:17.358Z,66.29
2018-07-25T21:57:43.418Z,65.54
2018-07-25T22:00:09.455Z,67.72
2018-07-25T22:02:35.609Z,67.66
2018-07-25T22:05:01.659Z,67.04
2018-07-25T22:07:28.417Z,67.03
2018-07-25T22:09:54.549Z,66.39
2018-07-25T22:12:20.588Z,66.50
2018-07-25T22:14:46.628Z,66.74
2018-07-25T22:18:16.152Z,67.17
2018-07-25T22:20:42.182Z,67.83
2018-07-25T22:23:08.213Z,66.28
2018-07-25T22:25:34.250Z,68.50
2018-07-25T22:28:00.291Z,69.50
2018-07-25T22:30:26.404Z,67.84
2018-07-25T22:34:51.695Z,68.38
2018-07-25T22:37:17.730Z,68.62
2018-07-25T22:39:43.758Z,69.90
2018-07-25T22:42:09.789Z,68.95
2018-07-25T22:44:35.848Z,70.69
2018-07-25T22:47:01.918Z,71.80
2018-07-25T22:49:27.946Z,69.99
2018-07-25T22:51:53.974Z,70.87
2018-07-25T22:54:20.006Z,71.31
2018-07-25T22:56:46.047Z,71.05
2018-07-25T22:59:12.110Z,70.26
2018-07-25T23:01:38.153Z,71.35
2018-07-25T23:04:04.188Z,70.50
2018-07-25T23:06:30.226Z,70.94
2018-07-25T23:08:56.258Z,71.26
2018-07-25T23:11:22.294Z,70.67
2018-07-25T23:13:48.321Z,72.05
2018-07-25T23:16:14.353Z,73.83
2018-07-25T23:18:40.385Z,70.51
2018-07-25T23:21:06.533Z,72.86
2018-07-25T23:23:32.576Z,71.66
2018-07-25T23:25:58.887Z,72.95
2018-07-25T23:28:24.925Z,71.59
2018-07-25T23:30:50.964Z,71.88
2018-07-25T23:33:17.094Z,72.86
2018-07-25T23:35:43.159Z,73.27
2018-07-25T23:38:09.217Z,72.91
2018-07-25T23:40:35.273Z,72.85
2018-07-25T23:43:01.307Z,73.84
2018-07-25T23:45:27.338Z,75.04
2018-07-25T23:47:53.370Z,73.71
2018-07-25T23:50:19.409Z,74.31
2018-07-25T23:52:45.440Z,74.08
2018-07-25T23:55:11.514Z,74.25
2018-07-25T23:57:37.542Z,72.48
